Time;durP1;ratioP1;P1;durP2;ratioP2;P2;SDS_P1;SDS_P2;PMS_P1;PMS_P2;Temp;Humidity;BMP_temperature;BMP_pressure;BME280_temperature;BME280_humidity;BME280_pressure;Samples;Min_cycle;Max_cycle;Signal;HPM_P1;HPM_P2
2021/03/02 00:01:47;;;;;;;0.70;0.70;;;;;;;4.67;74.30;102141.31;5030542;28;20203;-69
2021/03/02 00:04:15;;;;;;;1.30;0.80;;;;;;;4.46;75.38;102108.03;5031563;28;20198;-69
2021/03/02 00:06:43;;;;;;;2.93;0.90;;;;;;;4.71;74.90;102140.31;5030725;28;20584;-69
2021/03/02 00:09:10;;;;;;;1.30;0.60;;;;;;;4.68;75.39;102145.72;5030786;28;20298;-69
2021/03/02 00:11:44;;;;;;;1.53;0.90;;;;;;;4.58;74.95;102134.38;5030436;28;20574;-69
2021/03/02 00:14:11;;;;;;;6.00;1.17;;;;;;;4.61;74.26;102152.06;5031096;28;20203;-68
2021/03/02 00:16:43;;;;;;;1999.90;916.30;;;;;;;4.67;74.64;102147.50;5019234;28;20726;-67
2021/03/02 00:19:13;;;;;;;196.77;87.57;;;;;;;4.67;75.21;102155.47;5018514;28;20582;-69
2021/03/02 00:21:49;;;;;;;10.57;5.23;;;;;;;4.65;75.03;102153.75;5021682;28;20256;-69
2021/03/02 00:24:26;;;;;;;4.17;2.60;;;;;;;4.67;75.64;102152.81;5022301;28;20198;-69
2021/03/02 00:26:56;;;;;;;5.57;1.70;;;;;;;4.71;75.51;102148.31;5021566;28;20211;-69
2021/03/02 00:29:25;;;;;;;3.63;2.37;;;;;;;4.71;75.61;102150.09;5010536;28;20203;-69
2021/03/02 00:31:53;;;;;;;6.40;2.17;;;;;;;4.75;75.41;102155.31;5023715;28;20201;-69
2021/03/02 00:34:20;;;;;;;1.53;1.30;;;;;;;4.77;75.75;102144.63;5010207;28;20628;-69
2021/03/02 00:36:48;;;;;;;1.83;1.67;;;;;;;4.77;75.47;102153.50;5026277;28;20301;-69
2021/03/02 00:39:15;;;;;;;5.23;2.70;;;;;;;4.55;73.43;102142.41;5022551;28;20239;-69
2021/03/02 00:41:44;;;;;;;5.70;1.47;;;;;;;4.64;73.96;102155.53;5032890;28;20616;-69
2021/03/02 00:44:13;;;;;;;1.93;1.80;;;;;;;4.67;74.52;102147.50;5029148;28;20195;-69
2021/03/02 00:46:41;;;;;;;13.70;9.77;;;;;;;4.68;74.07;102165.22;5028625;28;20256;-69
2021/03/02 00:49:08;;;;;;;1.57;1.47;;;;;;;4.56;73.77;102160.13;5029564;28;20229;-69
2021/03/02 00:51:36;;;;;;;0.97;0.97;;;;;;;4.58;74.01;102150.31;5029112;28;20267;-69
2021/03/02 00:54:04;;;;;;;1.17;1.07;;;;;;;4.65;74.33;102162.63;5025134;28;20298;-68
2021/03/02 00:56:31;;;;;;;2.77;1.30;;;;;;;4.67;74.60;102155.47;5027710;28;20784;-69
2021/03/02 00:58:59;;;;;;;0.63;0.63;;;;;;;4.50;72.08;102154.94;5026209;28;20215;-69
2021/03/02 01:01:27;;;;;;;3.47;1.50;;;;;;;4.42;71.39;102163.97;5039880;28;20755;-69
2021/03/02 01:03:55;;;;;;;2.33;0.90;;;;;;;4.11;71.04;102167.22;5020641;28;20376;-69
2021/03/02 01:06:22;;;;;;;1.20;1.00;;;;;;;4.17;71.80;102160.91;5028154;28;20245;-69
2021/03/02 01:08:50;;;;;;;1.17;0.80;;;;;;;4.25;72.71;102156.31;5029121;28;20874;-69
2021/03/02 01:11:18;;;;;;;0.53;0.53;;;;;;;4.24;73.41;102170.50;5029441;28;20568;-69
2021/03/02 01:13:45;;;;;;;1.00;0.80;;;;;;;4.24;74.38;102173.16;5028774;28;20232;-69
2021/03/02 01:16:13;;;;;;;0.73;0.73;;;;;;;4.25;75.20;102167.81;5017563;28;20674;-69
2021/03/02 01:18:42;;;;;;;1.20;1.00;;;;;;;4.23;75.21;102171.41;5024043;28;20228;-69
2021/03/02 01:21:09;;;;;;;1.27;0.60;;;;;;;4.23;75.57;102174.94;5023276;28;20202;-69
2021/03/02 01:23:36;;;;;;;2.77;0.80;;;;;;;4.17;75.54;102171.53;5017187;28;20722;-69
2021/03/02 01:26:04;;;;;;;1.67;0.90;;;;;;;4.12;75.59;102168.97;5029904;28;20197;-69
2021/03/02 01:28:31;;;;;;;1.10;0.90;;;;;;;4.06;75.62;102169.06;5027970;28;20202;-69
2021/03/02 01:30:59;;;;;;;6.70;0.97;;;;;;;4.00;75.78;102169.19;5029259;28;20695;-69
2021/03/02 01:33:26;;;;;;;2.70;0.70;;;;;;;3.88;76.18;102164.94;5015943;28;20198;-69
2021/03/02 01:35:54;;;;;;;1.93;0.83;;;;;;;3.92;76.29;102171.06;5018147;28;20695;-69
2021/03/02 01:38:22;;;;;;;2.47;0.80;;;;;;;3.90;76.78;102178.19;5029283;28;20198;-69
2021/03/02 01:40:49;;;;;;;1.47;0.93;;;;;;;3.90;77.30;102172.88;5017292;28;20205;-69
2021/03/02 01:43:35;;;;;;;1.50;0.90;;;;;;;3.90;77.91;102173.75;5028820;28;20233;-69
2021/03/02 01:46:02;;;;;;;1.87;0.97;;;;;;;3.84;77.88;102149.97;5028972;28;20202;-69
2021/03/02 01:48:31;;;;;;;3.83;1.30;;;;;;;3.85;77.96;102153.50;5029317;28;20292;-69
2021/03/02 01:50:59;;;;;;;3.13;1.27;;;;;;;3.68;77.77;102140.53;5028965;28;20559;-67
2021/03/02 01:53:26;;;;;;;9.37;0.97;;;;;;;3.80;78.18;102161.56;5029136;28;20191;-67
2021/03/02 01:55:54;;;;;;;2.60;1.20;;;;;;;3.60;78.02;102127.34;5028409;28;20230;-67
2021/03/02 01:58:21;;;;;;;2.97;0.77;;;;;;;3.77;77.91;102155.41;5029715;28;20213;-67
2021/03/02 02:00:50;;;;;;;1.50;1.03;;;;;;;3.77;77.78;102163.38;5027099;28;20716;-67
2021/03/02 02:03:32;;;;;;;2.07;0.90;;;;;;;3.69;78.08;102166.19;5032764;28;20209;-67
2021/03/02 02:06:04;;;;;;;1.87;0.73;;;;;;;3.65;77.34;102169.75;5030616;28;20374;-67
2021/03/02 02:08:44;;;;;;;3.03;0.80;;;;;;;3.54;76.14;102174.38;5032330;28;20189;-67
2021/03/02 02:11:25;;;;;;;1.97;1.00;;;;;;;3.41;76.75;102171.91;5033217;28;20597;-67
2021/03/02 02:14:07;;;;;;;2.67;1.00;;;;;;;3.38;77.00;102169.31;5032810;28;20582;-67
2021/03/02 02:16:36;;;;;;;3.60;1.40;;;;;;;3.26;76.83;102165.94;5031160;28;20618;-69
2021/03/02 02:19:10;;;;;;;244.40;87.43;;;;;;;3.37;77.29;102161.38;5015684;28;20210;-69
2021/03/02 02:21:50;;;;;;;45.20;17.97;;;;;;;3.42;77.53;102168.34;5018405;28;20694;-69
2021/03/02 02:24:23;;;;;;;17.50;7.87;;;;;;;3.46;78.06;102160.34;5019614;28;20211;-69
2021/03/02 02:26:55;;;;;;;4.37;1.20;;;;;;;3.46;77.18;102149.72;5026342;28;20197;-69
2021/03/02 02:29:27;;;;;;;3.97;1.40;;;;;;;3.21;76.46;102123.53;5033891;28;20201;-69
2021/03/02 02:31:58;;;;;;;4.30;1.33;;;;;;;3.49;76.86;102160.28;5032580;28;20202;-69
2021/03/02 02:34:27;;;;;;;1.20;0.73;;;;;;;3.58;76.65;102176.06;5020601;28;20234;-69
2021/03/02 02:36:59;;;;;;;3.80;1.30;;;;;;;3.45;76.16;102147.97;5030566;28;20225;-69
2021/03/02 02:39:29;;;;;;;2.00;1.13;;;;;;;3.64;75.20;102176.84;5033068;28;20716;-69
2021/03/02 02:41:58;;;;;;;3.23;1.37;;;;;;;3.62;75.20;102188.41;5027199;28;20220;-69
2021/03/02 02:44:26;;;;;;;2.40;1.47;;;;;;;3.76;74.87;102193.50;5030849;28;20297;-69
2021/03/02 02:46:56;;;;;;;4.60;1.53;;;;;;;3.80;75.06;102200.53;5031969;28;20275;-69
2021/03/02 02:49:25;;;;;;;0.50;0.40;;;;;;;3.56;74.30;102199.13;5032766;28;20198;-69
2021/03/02 02:51:52;;;;;;;4.00;1.23;;;;;;;3.61;75.01;102197.28;5028965;28;20190;-69
2021/03/02 02:54:20;;;;;;;3.53;1.03;;;;;;;3.69;75.10;102200.72;5019898;28;20221;-69
2021/03/02 02:56:48;;;;;;;7.10;2.70;;;;;;;3.76;75.37;102202.34;5032305;28;20570;-69
2021/03/02 02:59:20;;;;;;;4.07;0.70;;;;;;;3.87;75.28;102203.03;5017901;28;20364;-68
2021/03/02 03:01:52;;;;;;;0.60;0.60;;;;;;;3.92;75.37;102210.94;5030297;28;20669;-69
2021/03/02 03:04:22;;;;;;;3.07;0.77;;;;;;;3.84;74.72;102211.06;5023453;28;20280;-69
2021/03/02 03:06:53;;;;;;;3.03;0.63;;;;;;;3.93;74.79;102216.22;5027529;28;20466;-69
2021/03/02 03:09:22;;;;;;;5.67;1.17;;;;;;;3.89;73.94;102213.66;5032038;28;20247;-68
2021/03/02 03:11:54;;;;;;;0.93;0.87;;;;;;;4.03;74.71;102207.22;5031637;28;20209;-69
2021/03/02 03:14:47;;;;;;;0.97;0.80;;;;;;;3.70;75.38;102144.03;5023609;28;20242;-69
2021/03/02 03:17:16;;;;;;;1.33;1.00;;;;;;;4.14;75.14;102208.81;5029086;28;20225;-69
2021/03/02 03:19:45;;;;;;;0.73;0.60;;;;;;;4.13;75.30;102207.94;5035928;28;20616;-68
2021/03/02 03:22:13;;;;;;;1.10;1.00;;;;;;;4.14;75.31;102214.13;5029660;28;20277;-68
2021/03/02 03:24:41;;;;;;;3.97;0.77;;;;;;;4.18;75.20;102221.13;5026364;28;20578;-69
2021/03/02 03:27:09;;;;;;;5.23;0.93;;;;;;;4.16;75.58;102223.81;5023012;28;20248;-68
2021/03/02 03:29:38;;;;;;;1.50;1.07;;;;;;;4.19;75.63;102225.53;5027928;28;20206;-68
2021/03/02 03:32:09;;;;;;;7.70;0.90;;;;;;;4.16;75.26;102213.19;5021002;28;20217;-68
2021/03/02 03:34:40;;;;;;;4.90;0.90;;;;;;;4.23;75.19;102233.44;5017577;28;20766;-68
2021/03/02 03:37:07;;;;;;;2.13;0.60;;;;;;;4.25;75.24;102233.41;5031616;28;20268;-69
2021/03/02 03:39:34;;;;;;;1.53;1.03;;;;;;;4.26;75.22;102240.47;5031470;28;20683;-68
2021/03/02 03:42:02;;;;;;;0.80;0.80;;;;;;;4.25;75.13;102241.38;5031238;28;20204;-68
2021/03/02 03:44:29;;;;;;;5.60;0.90;;;;;;;4.28;75.95;102236.88;5032004;28;20289;-68
2021/03/02 03:46:56;;;;;;;3.20;1.27;;;;;;;4.27;74.82;102244.88;5031090;28;20289;-68
2021/03/02 03:49:24;;;;;;;3.70;0.80;;;;;;;4.32;75.56;102246.59;5031641;28;20298;-69
2021/03/02 03:51:54;;;;;;;1.80;0.90;;;;;;;4.22;74.92;102236.13;5030762;28;20658;-68
2021/03/02 03:54:24;;;;;;;4.17;0.80;;;;;;;4.26;74.99;102248.44;5031324;28;20201;-69
2021/03/02 03:56:53;;;;;;;4.60;1.00;;;;;;;4.20;74.57;102254.75;5030814;28;20230;-68
2021/03/02 03:59:24;;;;;;;5.70;0.93;;;;;;;4.21;74.68;102255.63;5031298;28;20285;-68
2021/03/02 04:01:52;;;;;;;1999.90;999.90;;;;;;;4.22;74.76;102262.72;5029044;28;20203;-69
2021/03/02 04:04:21;;;;;;;766.63;150.70;;;;;;;4.23;74.84;102268.00;5029361;28;20205;-69
2021/03/02 04:06:50;;;;;;;16.37;6.33;;;;;;;4.22;75.42;102257.38;5028334;28;20201;-68
2021/03/02 04:09:18;;;;;;;7.70;3.20;;;;;;;4.29;75.89;102272.34;5029314;28;20321;-66
2021/03/02 04:11:46;;;;;;;39.03;27.93;;;;;;;4.32;75.70;102275.84;5030747;28;20281;-66
2021/03/02 04:14:13;;;;;;;5.50;2.53;;;;;;;4.34;75.54;102281.13;5030297;28;20197;-66
2021/03/02 04:16:42;;;;;;;1.23;1.10;;;;;;;4.38;75.57;102272.19;5029444;28;20209;-66
2021/03/02 04:19:10;;;;;;;5.20;1.83;;;;;;;4.40;75.02;102280.13;5026512;28;20198;-68
2021/03/02 04:21:37;;;;;;;2.87;1.20;;;;;;;4.39;75.25;102268.63;5030637;28;20229;-68
2021/03/02 04:24:07;;;;;;;1.70;0.97;;;;;;;4.38;74.94;102282.81;5030594;28;20252;-68
2021/03/02 04:26:34;;;;;;;1.63;1.10;;;;;;;4.24;73.07;102288.38;5030858;28;20548;-68
2021/03/02 04:29:02;;;;;;;2.70;1.10;;;;;;;4.33;74.34;102304.19;5031408;28;20665;-68
2021/03/02 04:31:29;;;;;;;1.83;1.73;;;;;;;4.32;74.17;102305.09;5029396;28;20202;-68
2021/03/02 04:33:56;;;;;;;3.47;0.70;;;;;;;4.38;73.32;102301.44;5025006;28;20239;-66
2021/03/02 04:36:24;;;;;;;1.50;0.97;;;;;;;4.36;73.88;102289.97;5028868;28;20622;-66
2021/03/02 04:38:51;;;;;;;1.83;1.73;;;;;;;4.29;72.99;102297.16;5029693;28;20619;-66
2021/03/02 04:41:20;;;;;;;1.20;0.60;;;;;;;4.32;72.95;102305.09;5029769;28;20222;-66
2021/03/02 04:43:47;;;;;;;1.00;0.90;;;;;;;4.29;72.52;102305.16;5027871;28;20705;-68
2021/03/02 04:46:14;;;;;;;3.07;0.70;;;;;;;4.29;72.98;102297.16;5028145;28;20199;-68
2021/03/02 04:48:41;;;;;;;5.23;0.97;;;;;;;4.33;73.21;102308.63;5028605;28;20688;-68
2021/03/02 04:51:08;;;;;;;2.13;0.80;;;;;;;4.35;73.19;102305.03;5029810;28;20210;-68
2021/03/02 04:53:36;;;;;;;2.83;0.87;;;;;;;4.35;73.51;102305.03;5028143;28;20210;-68
2021/03/02 04:56:03;;;;;;;1.07;0.70;;;;;;;4.33;73.50;102300.66;5029108;28;20571;-68
2021/03/02 04:58:31;;;;;;;0.80;0.77;;;;;;;4.32;73.42;102304.22;5029409;28;20684;-66
2021/03/02 05:00:59;;;;;;;2.30;0.77;;;;;;;4.27;73.58;102298.06;5020059;28;20738;-67
2021/03/02 05:03:26;;;;;;;1.53;0.70;;;;;;;4.27;73.21;102296.28;5020746;28;20278;-66
2021/03/02 05:05:53;;;;;;;4.00;0.80;;;;;;;4.37;74.30;102302.34;5023438;28;20218;-66
2021/03/02 05:08:21;;;;;;;2.37;0.80;;;;;;;4.36;74.37;102313.88;5017756;28;20652;-66
2021/03/02 05:10:48;;;;;;;0.70;0.60;;;;;;;4.26;74.22;102317.59;5026166;28;20214;-66
2021/03/02 05:13:15;;;;;;;3.87;1.03;;;;;;;4.34;75.04;102310.38;5029389;28;20252;-66
2021/03/02 05:15:43;;;;;;;1.83;0.87;;;;;;;4.33;75.72;102317.47;5028293;28;20210;-66
2021/03/02 05:18:11;;;;;;;0.77;0.77;;;;;;;4.33;75.80;102332.56;5028274;28;20695;-66
2021/03/02 05:20:39;;;;;;;0.80;0.80;;;;;;;4.28;76.47;102323.75;5018272;28;20321;-66
2021/03/02 05:23:07;;;;;;;1.47;0.83;;;;;;;4.25;76.36;102323.81;5021965;28;20730;-69
2021/03/02 05:25:34;;;;;;;4.83;1.10;;;;;;;4.22;77.20;102319.41;5021175;28;20197;-69
2021/03/02 05:28:01;;;;;;;0.80;0.73;;;;;;;4.18;77.04;102319.50;5020826;28;20209;-65
2021/03/02 05:30:29;;;;;;;1.60;0.60;;;;;;;4.16;77.03;102324.84;5022545;28;20408;-65
2021/03/02 05:32:57;;;;;;;0.63;0.63;;;;;;;4.14;77.45;102326.66;5027429;28;20277;-69
2021/03/02 05:35:24;;;;;;;2.40;0.90;;;;;;;4.09;77.02;102328.50;5016248;28;20230;-69
2021/03/02 05:37:51;;;;;;;2.50;0.90;;;;;;;4.04;77.05;102339.22;5018456;28;20385;-69
2021/03/02 05:40:18;;;;;;;2.57;0.90;;;;;;;3.92;77.53;102328.75;5016229;28;20283;-68
2021/03/02 05:42:46;;;;;;;4.60;1.40;;;;;;;4.00;77.58;102349.91;5016654;28;20285;-69
2021/03/02 05:45:14;;;;;;;1.80;1.30;;;;;;;3.99;77.95;102346.38;5018246;28;20206;-69
2021/03/02 05:47:42;;;;;;;3.20;1.23;;;;;;;3.67;78.08;102292.78;5014792;28;20217;-68
2021/03/02 05:50:12;;;;;;;6.37;1.30;;;;;;;3.95;77.93;102344.63;5009627;28;20249;-68
2021/03/02 05:52:40;;;;;;;1999.90;832.57;;;;;;;3.91;77.72;102350.03;5020069;28;20229;-69
2021/03/02 05:55:08;;;;;;;199.90;75.37;;;;;;;3.76;77.52;102316.59;5020170;28;20190;-66
2021/03/02 05:57:36;;;;;;;56.97;23.10;;;;;;;3.93;78.22;102349.09;5019491;28;20535;-66
2021/03/02 06:00:05;;;;;;;11.97;6.87;;;;;;;3.95;77.82;102355.25;5019162;28;20199;-67
2021/03/02 06:02:33;;;;;;;15.67;6.73;;;;;;;3.99;77.61;102359.66;5015629;28;20208;-67
2021/03/02 06:05:00;;;;;;;14.10;7.07;;;;;;;4.04;78.02;102359.59;5015870;28;20212;-67
2021/03/02 06:07:28;;;;;;;7.27;2.80;;;;;;;4.12;78.16;102364.78;5024382;28;20214;-66
2021/03/02 06:09:55;;;;;;;6.27;3.80;;;;;;;4.17;77.70;102378.88;5028554;28;20203;-66
2021/03/02 06:12:22;;;;;;;5.37;1.60;;;;;;;3.87;75.67;102386.38;5028618;28;20248;-66
2021/03/02 06:15:02;;;;;;;1.93;1.27;;;;;;;3.97;76.55;102385.34;5028893;28;20209;-66
2021/03/02 06:17:30;;;;;;;5.23;2.00;;;;;;;3.97;76.81;102377.38;5014730;28;20234;-67
2021/03/02 06:19:57;;;;;;;3.30;2.00;;;;;;;3.99;77.45;102367.63;5013536;28;20202;-66
2021/03/02 06:22:33;;;;;;;3.93;2.37;;;;;;;4.02;77.52;102374.69;5013246;28;20579;-66
2021/03/02 06:25:03;;;;;;;8.53;2.33;;;;;;;4.04;77.89;102371.09;5009304;28;20856;-66
2021/03/02 06:27:31;;;;;;;8.73;2.77;;;;;;;4.09;77.89;102394.06;5014106;28;20567;-66
2021/03/02 06:30:10;;;;;;;7.53;3.80;;;;;;;4.12;77.74;102397.56;5010499;28;20429;-66
2021/03/02 06:32:39;;;;;;;5.67;2.43;;;;;;;3.89;78.01;102350.03;5013076;28;20235;-66
2021/03/02 06:35:08;;;;;;;5.93;2.10;;;;;;;4.18;77.56;102401.91;5019568;28;20292;-66
2021/03/02 06:37:44;;;;;;;5.80;2.33;;;;;;;4.20;77.56;102410.75;5023474;28;20229;-66
2021/03/02 06:40:13;;;;;;;2.43;1.17;;;;;;;4.18;77.44;102412.53;5014875;28;20278;-66
2021/03/02 06:42:42;;;;;;;2.50;1.43;;;;;;;4.18;77.72;102417.84;5024398;28;20221;-66
2021/03/02 06:45:13;;;;;;;5.70;1.47;;;;;;;4.18;77.45;102420.53;5027666;28;20298;-65
2021/03/02 06:47:45;;;;;;;3.03;1.30;;;;;;;4.12;77.17;102409.97;5023549;28;20202;-66
2021/03/02 06:50:23;;;;;;;2.87;1.73;;;;;;;4.29;77.54;102423.91;5014396;28;20191;-67
2021/03/02 06:52:52;;;;;;;3.00;1.63;;;;;;;4.36;77.52;102426.47;5017506;28;20211;-66
2021/03/02 06:55:25;;;;;;;1.63;1.10;;;;;;;4.42;77.59;102433.47;5022734;28;20553;-65
2021/03/02 06:57:52;;;;;;;1.97;0.93;;;;;;;4.28;77.07;102392.88;5026616;28;20310;-65
2021/03/02 07:00:34;;;;;;;2.10;1.10;;;;;;;4.51;76.14;102443.06;5022311;28;20197;-65
2021/03/02 07:03:01;;;;;;;1.73;1.23;;;;;;;4.65;76.68;102452.63;5018136;28;20225;-65
2021/03/02 07:05:29;;;;;;;0.87;0.87;;;;;;;4.79;76.19;102448.84;5020632;28;20203;-65
2021/03/02 07:07:57;;;;;;;1.83;1.27;;;;;;;4.89;75.82;102442.47;5022447;28;20202;-65
2021/03/02 07:10:25;;;;;;;2.50;1.00;;;;;;;4.96;76.14;102450.34;5024280;28;20265;-65
2021/03/02 07:12:55;;;;;;;1.30;1.20;;;;;;;5.09;75.93;102447.44;5023667;28;20551;-65
2021/03/02 07:15:24;;;;;;;2.00;1.33;;;;;;;5.18;75.10;102449.94;5023499;28;20219;-65
2021/03/02 07:17:54;;;;;;;3.13;0.93;;;;;;;5.29;75.30;102454.19;5019288;28;20219;-65
2021/03/02 07:20:23;;;;;;;1.10;1.00;;;;;;;5.39;74.53;102451.34;5019874;28;20199;-65
2021/03/02 07:22:53;;;;;;;3.67;1.00;;;;;;;5.57;74.44;102473.19;5026602;28;20195;-65
2021/03/02 07:25:23;;;;;;;4.93;1.33;;;;;;;5.70;74.04;102481.81;5021573;28;20202;-65
2021/03/02 07:27:53;;;;;;;1.30;1.00;;;;;;;5.83;74.36;102478.03;5029594;28;20208;-66
2021/03/02 07:30:21;;;;;;;3.70;1.63;;;;;;;5.99;73.41;102483.06;5029789;28;20221;-68
2021/03/02 07:32:48;;;;;;;3.87;1.00;;;;;;;6.13;73.43;102483.66;5031505;28;20673;-68
2021/03/02 07:35:18;;;;;;;2.00;1.20;;;;;;;6.14;70.63;102469.44;5016174;28;20267;-68
2021/03/02 07:37:45;;;;;;;1.07;0.73;;;;;;;6.27;71.67;102462.91;5024123;28;20223;-68
2021/03/02 07:40:15;;;;;;;1.03;0.90;;;;;;;6.23;69.87;102466.53;5032665;28;20568;-68
2021/03/02 07:42:43;;;;;;;1.27;1.17;;;;;;;6.32;69.26;102477.00;5029536;28;20200;-68
2021/03/02 07:45:13;;;;;;;0.50;0.50;;;;;;;6.45;67.46;102486.50;5014744;28;20664;-68
2021/03/02 07:47:58;;;;;;;0.60;0.60;;;;;;;6.68;69.52;102493.09;5026097;28;20202;-65
2021/03/02 07:50:28;;;;;;;1.23;1.07;;;;;;;6.77;69.72;102482.22;5031201;28;20285;-65
2021/03/02 07:53:29;;;;;;;0.80;0.80;;;;;;;7.10;68.70;102492.06;5028828;28;20210;-66
2021/03/02 07:56:26;;;;;;;0.93;0.60;;;;;;;7.20;69.39;102491.81;4963826;28;20212;-68
2021/03/02 07:59:17;;;;;;;1.63;0.60;;;;;;;7.33;68.26;102502.16;4982893;28;20298;-68
2021/03/02 08:01:45;;;;;;;0.70;0.50;;;;;;;7.45;68.39;102498.31;5020193;28;20218;-68
2021/03/02 08:04:25;;;;;;;3.80;0.50;;;;;;;7.54;65.41;102487.34;5026069;28;20205;-68
2021/03/02 08:06:54;;;;;;;1.53;0.90;;;;;;;7.69;68.01;102476.25;5026748;28;20667;-68
2021/03/02 08:09:31;;;;;;;0.93;0.87;;;;;;;7.88;67.23;102486.41;5022339;28;20619;-68
2021/03/02 08:12:32;;;;;;;4.17;0.97;;;;;;;7.91;67.30;102487.19;5028844;28;20198;-68
2021/03/02 08:15:03;;;;;;;4.73;1.10;;;;;;;8.01;66.66;102503.88;5025324;28;20208;-68
2021/03/02 08:17:30;;;;;;;1.17;1.00;;;;;;;7.94;66.64;102494.25;5026231;28;20238;-68
2021/03/02 08:20:04;;;;;;;1.27;0.90;;;;;;;8.00;65.88;102512.84;5025336;28;20199;-68
2021/03/02 08:22:51;;;;;;;2.97;0.90;;;;;;;8.00;65.83;102511.03;5027817;28;20747;-65
2021/03/02 08:25:25;;;;;;;1999.90;853.00;;;;;;;7.93;66.00;102504.09;5030894;28;20199;-65
2021/03/02 08:27:56;;;;;;;153.33;64.27;;;;;;;7.98;66.68;102514.69;5026625;28;20206;-66
2021/03/02 08:30:26;;;;;;;12.20;6.20;;;;;;;7.99;66.44;102519.97;5023159;28;20531;-65
2021/03/02 08:32:55;;;;;;;14.57;3.93;;;;;;;8.00;66.52;102516.38;5023946;28;20207;-67
2021/03/02 08:35:25;;;;;;;3.23;2.37;;;;;;;8.03;66.53;102513.63;5019075;28;20263;-68
2021/03/02 08:37:54;;;;;;;3.73;2.40;;;;;;;8.05;66.90;102514.44;5019624;28;20241;-65
2021/03/02 08:40:24;;;;;;;3.30;1.23;;;;;;;8.06;66.68;102528.72;5031622;28;20216;-65
2021/03/02 08:43:07;;;;;;;1.30;1.20;;;;;;;8.15;67.19;102527.56;5025189;28;20701;-65
2021/03/02 08:45:38;;;;;;;1.50;1.40;;;;;;;8.14;66.92;102515.97;5021419;28;20217;-68
2021/03/02 08:48:15;;;;;;;66.60;40.43;;;;;;;8.20;66.06;102529.16;5024081;28;20209;-68
2021/03/02 08:50:43;;;;;;;18.17;11.60;;;;;;;8.05;64.62;102510.91;5021819;28;20209;-68
2021/03/02 08:53:34;;;;;;;2.07;1.90;;;;;;;8.34;66.56;102540.41;5021487;28;21128;-68
2021/03/02 08:56:05;;;;;;;4.83;2.50;;;;;;;8.36;66.38;102549.25;5022012;28;20196;-68
2021/03/02 08:58:35;;;;;;;5.10;2.40;;;;;;;8.39;66.61;102543.81;5023980;28;20315;-67
2021/03/02 09:01:09;;;;;;;6.03;2.50;;;;;;;8.44;65.92;102550.81;5023269;28;20572;-68
2021/03/02 09:03:38;;;;;;;7.63;1.80;;;;;;;8.43;66.40;102549.06;5022401;28;20229;-68
2021/03/02 09:06:17;;;;;;;2.47;1.43;;;;;;;8.42;66.65;102545.53;5020262;28;20209;-68
2021/03/02 09:09:03;;;;;;;1.53;1.27;;;;;;;8.26;63.82;102542.38;5023144;28;20757;-68
2021/03/02 09:11:33;;;;;;;1.77;0.70;;;;;;;8.29;64.39;102546.78;5022901;28;20712;-70
2021/03/02 09:14:02;;;;;;;4.80;0.90;;;;;;;8.34;64.84;102550.22;5023828;28;20209;-69
2021/03/02 09:16:44;;;;;;;0.70;0.60;;;;;;;8.46;64.39;102549.84;5021427;28;20217;-69
2021/03/02 09:19:21;;;;;;;0.40;0.40;;;;;;;8.54;62.40;102557.66;5023056;28;20199;-68
2021/03/02 09:21:52;;;;;;;0.50;0.50;;;;;;;8.62;63.30;102561.88;5026268;28;20626;-68
2021/03/02 09:24:40;;;;;;;0.63;0.63;;;;;;;8.71;63.56;102556.22;5019929;28;20378;-65
2021/03/02 09:27:09;;;;;;;0.83;0.50;;;;;;;8.79;63.44;102566.69;5017226;28;20663;-65
2021/03/02 09:29:39;;;;;;;0.50;0.50;;;;;;;8.77;59.54;102571.22;5026287;28;20230;-65
2021/03/02 09:32:09;;;;;;;0.30;0.30;;;;;;;8.82;58.53;102569.28;5012883;28;20214;-65
2021/03/02 09:34:39;;;;;;;0.57;0.40;;;;;;;8.92;60.11;102568.09;5025547;28;20316;-65
2021/03/02 09:37:08;;;;;;;0.90;0.83;;;;;;;9.00;58.46;102567.84;5024073;28;20225;-68
2021/03/02 09:39:37;;;;;;;0.87;0.67;;;;;;;9.16;62.04;102573.56;5013091;28;20198;-66
2021/03/02 09:42:16;;;;;;;2.13;0.93;;;;;;;8.93;62.19;102529.66;5020469;28;20278;-66
2021/03/02 09:44:45;;;;;;;0.63;0.63;;;;;;;9.12;61.82;102563.88;5022306;28;20650;-66
2021/03/02 09:47:17;;;;;;;0.40;0.40;;;;;;;9.14;60.25;102570.94;5028641;28;20707;-66
2021/03/02 09:49:48;;;;;;;0.40;0.40;;;;;;;9.24;59.76;102577.78;5028809;28;20199;-66
2021/03/02 09:52:29;;;;;;;0.47;0.47;;;;;;;9.33;61.58;102576.59;5024587;28;20210;-65
2021/03/02 09:55:21;;;;;;;0.50;0.50;;;;;;;9.35;56.17;102596.19;5023964;28;20210;-66
2021/03/02 09:58:11;;;;;;;0.73;0.50;;;;;;;9.42;58.01;102587.00;5022025;28;20225;-66
2021/03/02 10:00:48;;;;;;;0.50;0.40;;;;;;;9.50;56.69;102584.09;5027466;28;20211;-66
2021/03/02 10:03:21;;;;;;;0.30;0.30;;;;;;;9.54;57.14;102583.94;5026665;28;20295;-66
2021/03/02 10:05:54;;;;;;;2.33;0.70;;;;;;;9.69;58.56;102595.06;5025868;28;20714;-69
2021/03/02 10:08:37;;;;;;;3.13;0.70;;;;;;;9.64;56.89;102582.69;5024582;28;20659;-68
2021/03/02 10:11:19;;;;;;;0.40;0.40;;;;;;;9.62;54.33;102587.22;5022342;28;20216;-68
2021/03/02 10:13:51;;;;;;;0.83;0.50;;;;;;;9.76;55.23;102594.78;5027474;28;20445;-69
2021/03/02 10:16:24;;;;;;;0.40;0.40;;;;;;;9.88;57.51;102586.31;5018242;28;20226;-69
2021/03/02 10:18:55;;;;;;;38.23;24.83;;;;;;;9.99;58.21;102595.78;5028308;28;20903;-70
2021/03/02 10:21:24;;;;;;;2.10;1.43;;;;;;;9.80;57.31;102566.94;5027023;28;20195;-68
2021/03/02 10:23:55;;;;;;;2.80;0.70;;;;;;;10.02;58.07;102590.31;5026497;28;20197;-68
2021/03/02 10:26:25;;;;;;;1.07;0.93;;;;;;;10.09;58.62;102598.09;5030828;28;20273;-69
2021/03/02 10:28:53;;;;;;;5.77;0.87;;;;;;;10.17;59.87;102597.81;5032535;28;20772;-68
2021/03/02 10:31:20;;;;;;;0.70;0.70;;;;;;;10.18;59.08;102603.13;5030190;28;20196;-68
2021/03/02 10:33:48;;;;;;;1.90;0.60;;;;;;;10.23;59.39;102611.94;5027016;28;22029;-68
2021/03/02 10:36:19;;;;;;;0.60;0.60;;;;;;;10.23;57.58;102601.19;5024267;28;20573;-68
2021/03/02 10:38:47;;;;;;;0.90;0.60;;;;;;;10.30;58.05;102609.03;5020327;28;20324;-68
2021/03/02 10:41:14;;;;;;;0.60;0.60;;;;;;;10.23;58.67;102586.91;5026065;28;20210;-68
2021/03/02 10:43:41;;;;;;;0.60;0.60;;;;;;;10.42;59.73;102613.97;5029366;28;20213;-68
2021/03/02 10:46:08;;;;;;;0.77;0.70;;;;;;;10.38;58.28;102617.66;5029284;28;20769;-68
2021/03/02 10:48:36;;;;;;;6.50;1.17;;;;;;;10.40;58.94;102613.13;5027324;28;20248;-68
2021/03/02 10:51:05;;;;;;;1.90;0.97;;;;;;;10.45;59.11;102617.41;5029627;28;20208;-68
2021/03/02 10:53:33;;;;;;;6.63;0.87;;;;;;;10.51;58.75;102614.50;5029227;28;20290;-68
2021/03/02 10:56:00;;;;;;;0.60;0.60;;;;;;;10.46;59.88;102583.38;5031864;28;20208;-68
2021/03/02 10:58:28;;;;;;;0.73;0.70;;;;;;;10.60;57.95;102615.94;5028422;28;20317;-68
2021/03/02 11:00:56;;;;;;;0.40;0.40;;;;;;;10.68;58.61;102613.84;5027184;28;20679;-68
2021/03/02 11:03:24;;;;;;;1.43;0.53;;;;;;;10.73;59.35;102611.00;5027896;28;20287;-68
2021/03/02 11:05:52;;;;;;;1.43;0.70;;;;;;;10.75;59.71;102607.31;5029498;28;20266;-67
2021/03/02 11:08:19;;;;;;;0.53;0.53;;;;;;;10.76;59.42;102601.00;5023742;28;20672;-68
2021/03/02 11:10:49;;;;;;;0.47;0.47;;;;;;;10.79;58.27;102617.00;5024757;28;20210;-68
2021/03/02 11:13:16;;;;;;;1.07;0.50;;;;;;;10.76;59.17;102603.69;5028391;28;20191;-68
2021/03/02 11:15:43;;;;;;;0.60;0.60;;;;;;;10.78;57.68;102611.69;5030285;28;20216;-68
2021/03/02 11:18:11;;;;;;;0.77;0.50;;;;;;;10.86;57.33;102613.13;5031568;28;20325;-68
2021/03/02 11:20:42;;;;;;;0.37;0.37;;;;;;;10.85;57.36;102603.31;5029591;28;20198;-68
2021/03/02 11:23:11;;;;;;;0.50;0.50;;;;;;;11.08;58.63;102617.69;5026949;28;20475;-68
2021/03/02 11:25:38;;;;;;;0.43;0.43;;;;;;;11.15;59.45;102613.81;5029429;28;20217;-68
2021/03/02 11:28:08;;;;;;;0.57;0.57;;;;;;;11.08;57.65;102601.56;5029950;28;20182;-68
2021/03/02 11:30:35;;;;;;;0.50;0.50;;;;;;;11.08;58.53;102593.50;5028054;28;20280;-68
2021/03/02 11:33:03;;;;;;;0.40;0.40;;;;;;;11.32;59.39;102621.19;5026459;28;20762;-68
2021/03/02 11:35:30;;;;;;;1.03;0.47;;;;;;;11.35;59.31;102624.66;5026932;28;20702;-68
2021/03/02 11:37:58;;;;;;;1.07;0.60;;;;;;;11.34;57.30;102619.34;5027575;28;20226;-68
2021/03/02 11:40:26;;;;;;;0.30;0.30;;;;;;;11.28;56.83;102611.47;5030591;28;20284;-68
2021/03/02 11:42:54;;;;;;;0.37;0.37;;;;;;;11.36;55.42;102620.16;5029363;28;20694;-68
2021/03/02 11:45:23;;;;;;;1.23;0.60;;;;;;;11.43;57.94;102616.25;5029723;28;20207;-68
2021/03/02 11:47:51;;;;;;;0.50;0.50;;;;;;;11.43;57.49;102616.25;5027560;28;20203;-68